Abergavenny, United Kingdom
Current Conditions -  °F | °C
As of 1:50 PM on Saturday 25 Oct 2014 (Local Time) from EGFF Reporting Station
Broken Clouds Broken Clouds  
Wind Chill: 57°   Ceiling: 4400
Heat Index: 57°   Visibility: 6mi
Dew Point: 50°   Wind: 12mph
Humidity: 77%   Direction: 230°SW
Pressure: 30.06"   Gusts: NA
Location:  51.82°N, 3.02°W
Report Text: EGFF 251250Z AUTO 23010KT 9999 BKN044 14/10 Q1018
Loading
Personal Weather Stations






























Interactive Weather Map New forecast layout! Learn more

10-Day Weather Forecast

Advertisements
Track Severe Weather on mobile